createdAt,value
2022-12-18T00:01:21.932Z,-6.98
2022-12-18T00:03:48.675Z,-6.93
2022-12-18T00:06:16.400Z,-6.95
2022-12-18T00:08:43.482Z,-6.94
2022-12-18T00:11:14.660Z,-6.96
2022-12-18T00:13:42.116Z,-7.01
2022-12-18T00:16:11.921Z,-7.04
2022-12-18T00:18:40.504Z,-7.04
2022-12-18T00:21:09.897Z,-7.10
2022-12-18T00:23:37.766Z,-7.17
2022-12-18T00:26:07.045Z,-7.23
2022-12-18T00:28:34.271Z,-7.32
2022-12-18T00:31:09.631Z,-7.39
2022-12-18T00:33:37.305Z,-7.40
2022-12-18T00:36:15.842Z,-7.47
2022-12-18T00:38:42.935Z,-7.62
2022-12-18T00:41:11.384Z,-7.73
2022-12-18T00:43:39.058Z,-7.80
2022-12-18T00:46:06.729Z,-7.81
2022-12-18T00:48:33.712Z,-7.82
2022-12-18T00:51:00.285Z,-7.77
2022-12-18T00:53:26.794Z,-7.79
2022-12-18T00:55:53.300Z,-7.83
2022-12-18T00:58:19.975Z,-7.91
2022-12-18T01:00:46.651Z,-7.94
2022-12-18T01:03:16.195Z,-7.91
2022-12-18T01:05:43.283Z,-7.99
2022-12-18T01:08:10.105Z,-7.96
2022-12-18T01:10:36.716Z,-7.97
2022-12-18T01:13:03.279Z,-7.94
2022-12-18T01:15:29.892Z,-7.89
2022-12-18T01:17:56.536Z,-7.97
2022-12-18T01:20:23.097Z,-8.03
2022-12-18T01:22:49.594Z,-8.04
2022-12-18T01:25:16.163Z,-7.99
2022-12-18T01:27:42.698Z,-7.93
2022-12-18T01:30:09.670Z,-8.07
2022-12-18T01:32:36.234Z,-8.23
2022-12-18T01:35:02.959Z,-8.26
2022-12-18T01:37:29.460Z,-8.21
2022-12-18T01:39:56.552Z,-8.24
2022-12-18T01:42:23.144Z,-8.14
2022-12-18T01:45:06.640Z,-8.23
2022-12-18T01:47:39.085Z,-8.25
2022-12-18T01:50:16.078Z,-8.26
2022-12-18T01:52:46.103Z,-8.31
2022-12-18T01:55:15.004Z,-8.34
2022-12-18T01:57:42.752Z,-8.39
2022-12-18T02:00:20.973Z,-8.52
2022-12-18T02:02:48.457Z,-8.53
2022-12-18T02:05:19.808Z,-8.35
2022-12-18T02:08:11.493Z,-8.45
2022-12-18T02:10:46.970Z,-8.52
2022-12-18T02:13:29.603Z,-8.53
2022-12-18T02:16:18.160Z,-8.51
2022-12-18T02:18:51.236Z,-8.55
2022-12-18T02:21:35.094Z,-8.57
2022-12-18T02:24:13.528Z,-8.67
2022-12-18T02:26:48.713Z,-8.69
2022-12-18T02:29:19.657Z,-8.58
2022-12-18T02:31:52.908Z,-8.66
2022-12-18T02:34:23.719Z,-8.69
2022-12-18T02:36:52.543Z,-8.82
2022-12-18T02:39:22.854Z,-8.88
2022-12-18T02:41:49.810Z,-8.92
2022-12-18T02:44:16.466Z,-8.95
2022-12-18T02:46:49.784Z,-8.87
2022-12-18T02:49:18.898Z,-8.87
2022-12-18T02:51:54.036Z,-8.84
2022-12-18T02:54:29.428Z,-8.70
2022-12-18T02:56:58.991Z,-8.64
2022-12-18T02:59:54.859Z,-8.82
2022-12-18T03:03:04.133Z,-8.82
2022-12-18T03:05:42.877Z,-8.78
2022-12-18T03:08:28.447Z,-8.96
2022-12-18T03:10:54.907Z,-8.88
2022-12-18T03:13:28.034Z,-8.87
2022-12-18T03:15:57.905Z,-8.77
2022-12-18T03:18:50.160Z,-8.72
2022-12-18T03:21:20.996Z,-8.70
2022-12-18T03:23:50.651Z,-8.60
2022-12-18T03:26:20.907Z,-8.54
2022-12-18T03:28:53.868Z,-8.51
2022-12-18T03:31:24.148Z,-8.49
2022-12-18T03:33:56.416Z,-8.67
2022-12-18T03:36:23.823Z,-8.89
2022-12-18T03:38:51.121Z,-8.82
2022-12-18T03:41:32.090Z,-8.80
2022-12-18T03:44:20.217Z,-8.68
2022-12-18T03:46:55.589Z,-8.67
2022-12-18T03:49:42.372Z,-8.99
2022-12-18T03:52:17.673Z,-9.39
2022-12-18T03:54:46.514Z,-9.66
2022-12-18T03:57:18.277Z,-9.88
2022-12-18T03:59:46.254Z,-9.89
2022-12-18T04:02:13.559Z,-9.91
2022-12-18T04:04:42.039Z,-9.91
2022-12-18T04:07:08.865Z,-10.03
2022-12-18T04:09:39.868Z,-10.10
2022-12-18T04:12:09.251Z,-10.13
2022-12-18T04:14:36.630Z,-10.14
2022-12-18T04:17:04.110Z,-10.19
2022-12-18T04:19:30.773Z,-10.27
2022-12-18T04:21:57.317Z,-10.32
2022-12-18T04:24:23.863Z,-10.33
2022-12-18T04:26:50.398Z,-10.29
2022-12-18T04:29:17.075Z,-10.24
2022-12-18T04:31:43.664Z,-10.21
2022-12-18T04:34:10.161Z,-10.20
2022-12-18T04:36:36.656Z,-10.12
2022-12-18T04:39:03.202Z,-10.12
2022-12-18T04:41:29.728Z,-10.17
2022-12-18T04:43:56.279Z,-10.24
2022-12-18T04:46:22.943Z,-10.23
2022-12-18T04:48:49.536Z,-9.84
2022-12-18T04:51:16.087Z,-9.53
2022-12-18T04:53:43.022Z,-9.46
2022-12-18T04:56:12.328Z,-9.18
2022-12-18T04:58:40.598Z,-9.18
2022-12-18T05:01:08.586Z,-9.16
2022-12-18T05:03:37.087Z,-9.26
2022-12-18T05:06:05.352Z,-9.30
2022-12-18T05:08:32.370Z,-9.42
2022-12-18T05:11:03.920Z,-9.72
2022-12-18T05:13:30.745Z,-10.05
2022-12-18T05:15:57.418Z,-10.29
2022-12-18T05:18:25.234Z,-9.90
2022-12-18T05:20:52.725Z,-9.46
2022-12-18T05:23:19.753Z,-9.38
2022-12-18T05:25:54.769Z,-9.46
2022-12-18T05:28:21.913Z,-9.90
2022-12-18T05:30:52.689Z,-10.15
2022-12-18T05:33:20.512Z,-9.90
2022-12-18T05:35:52.663Z,-9.89
2022-12-18T05:38:20.407Z,-10.11
2022-12-18T05:40:48.645Z,-10.23
2022-12-18T05:43:20.903Z,-10.17
2022-12-18T05:45:48.850Z,-10.14
2022-12-18T05:48:16.112Z,-10.36
2022-12-18T05:50:46.460Z,-10.24
2022-12-18T05:53:15.325Z,-9.97
2022-12-18T05:55:42.971Z,-9.47
2022-12-18T05:58:10.820Z,-9.53
2022-12-18T06:00:42.598Z,-9.66
2022-12-18T06:03:11.000Z,-9.79
2022-12-18T06:05:42.832Z,-10.06
2022-12-18T06:08:09.941Z,-10.19
2022-12-18T06:10:36.748Z,-10.13
2022-12-18T06:13:03.660Z,-9.81
2022-12-18T06:15:30.145Z,-9.63
2022-12-18T06:17:56.652Z,-9.51
2022-12-18T06:20:23.616Z,-9.53
2022-12-18T06:22:50.597Z,-9.39
2022-12-18T06:25:17.232Z,-9.99
2022-12-18T06:27:44.132Z,-10.45
2022-12-18T06:30:11.600Z,-10.69
2022-12-18T06:32:38.396Z,-10.75
2022-12-18T06:35:05.366Z,-10.66
2022-12-18T06:37:32.522Z,-10.67
2022-12-18T06:39:59.153Z,-10.58
2022-12-18T06:42:26.026Z,-10.35
2022-12-18T06:44:52.733Z,-10.19
2022-12-18T06:47:19.849Z,-10.33
2022-12-18T06:49:46.413Z,-10.50
2022-12-18T06:52:12.959Z,-10.64
2022-12-18T06:54:39.502Z,-10.69
2022-12-18T06:57:06.028Z,-10.67
2022-12-18T06:59:32.669Z,-10.55
2022-12-18T07:01:59.364Z,-10.46
2022-12-18T07:04:31.315Z,-10.55
2022-12-18T07:06:58.542Z,-10.48
2022-12-18T07:09:25.439Z,-10.27
2022-12-18T07:11:52.744Z,-10.16
2022-12-18T07:14:19.282Z,-10.10
2022-12-18T07:16:45.831Z,-10.03
2022-12-18T07:19:12.472Z,-9.89
2022-12-18T07:21:39.026Z,-9.81
2022-12-18T07:24:06.192Z,-9.72
2022-12-18T07:26:32.791Z,-9.54
2022-12-18T07:28:59.644Z,-9.38
2022-12-18T07:31:27.337Z,-9.25
2022-12-18T07:33:54.281Z,-9.20
2022-12-18T07:36:21.260Z,-9.09
2022-12-18T07:38:49.098Z,-8.99
2022-12-18T07:41:16.082Z,-8.86
2022-12-18T07:43:43.373Z,-8.74
2022-12-18T07:46:11.825Z,-8.58
2022-12-18T07:48:40.662Z,-8.38
2022-12-18T07:51:08.064Z,-8.29
2022-12-18T07:53:36.811Z,-8.19
2022-12-18T07:58:54.864Z,-7.96
2022-12-18T08:01:21.687Z,-7.86
2022-12-18T08:03:48.351Z,-7.86
2022-12-18T08:06:16.026Z,-7.73
2022-12-18T08:08:43.287Z,-7.62
2022-12-18T08:11:09.872Z,-7.67
2022-12-18T08:13:36.690Z,-7.65
2022-12-18T08:16:07.074Z,-7.56
2022-12-18T08:18:35.358Z,-7.37
2022-12-18T08:21:13.424Z,-7.17
2022-12-18T08:23:43.040Z,-7.01
2022-12-18T08:26:11.485Z,-6.66
2022-12-18T08:28:38.493Z,-6.54
2022-12-18T08:31:05.515Z,-6.46
2022-12-18T08:33:33.000Z,-6.40
2022-12-18T08:36:00.632Z,-6.40
2022-12-18T08:38:27.367Z,-6.40
2022-12-18T08:41:02.230Z,-6.26
2022-12-18T08:44:01.478Z,-6.18
2022-12-18T08:46:35.005Z,-5.96
2022-12-18T08:49:01.938Z,-5.83
2022-12-18T08:51:29.496Z,-5.66
2022-12-18T08:53:56.063Z,-5.43
2022-12-18T08:56:22.772Z,-5.38
2022-12-18T08:58:53.255Z,-5.51
2022-12-18T09:01:20.476Z,-5.67
2022-12-18T09:03:48.489Z,-5.58
2022-12-18T09:06:16.898Z,-5.33
2022-12-18T09:08:46.979Z,-5.14
2022-12-18T09:11:16.558Z,-4.97
2022-12-18T09:13:43.331Z,-5.05
2022-12-18T09:16:10.699Z,-4.94
2022-12-18T09:18:37.417Z,-5.00
2022-12-18T09:21:16.020Z,-4.86
2022-12-18T09:23:42.692Z,-4.66
2022-12-18T09:26:09.232Z,-4.88
2022-12-18T09:28:36.220Z,-4.85
2022-12-18T09:31:10.517Z,-4.90
2022-12-18T09:33:37.588Z,-4.98
2022-12-18T09:36:07.662Z,-5.13
2022-12-18T09:38:35.712Z,-5.07
2022-12-18T09:41:36.465Z,-4.87
2022-12-18T09:44:29.313Z,-4.74
2022-12-18T09:47:06.047Z,-4.83
2022-12-18T09:49:37.578Z,-4.98
2022-12-18T09:52:12.622Z,-5.26
2022-12-18T09:54:43.027Z,-5.48
2022-12-18T09:57:19.505Z,-5.67
2022-12-18T09:59:52.864Z,-5.93
2022-12-18T10:02:22.683Z,-5.97
2022-12-18T10:05:13.730Z,-5.89
2022-12-18T10:07:59.079Z,-5.95
2022-12-18T10:10:41.118Z,-6.11
2022-12-18T10:13:18.200Z,-6.09
2022-12-18T10:16:11.906Z,-5.96
2022-12-18T10:18:51.143Z,-5.98
2022-12-18T10:21:22.835Z,-6.12
2022-12-18T10:24:09.635Z,-5.91
2022-12-18T10:26:36.550Z,-5.77
2022-12-18T10:29:11.882Z,-5.66
2022-12-18T10:31:38.637Z,-5.82
2022-12-18T10:34:05.298Z,-5.74
2022-12-18T10:36:31.934Z,-5.85
2022-12-18T10:39:17.258Z,-5.86
2022-12-18T10:41:43.927Z,-5.67
2022-12-18T10:44:18.742Z,-5.46
2022-12-18T10:46:49.236Z,-5.40
2022-12-18T10:49:35.780Z,-5.26
2022-12-18T10:52:17.055Z,-5.24
2022-12-18T10:54:53.113Z,-5.16
2022-12-18T10:57:33.128Z,-4.97
2022-12-18T11:00:14.373Z,-5.00
2022-12-18T11:02:41.460Z,-4.84
2022-12-18T11:05:37.848Z,-4.80
2022-12-18T11:08:04.768Z,-4.84
2022-12-18T11:10:37.880Z,-4.88
2022-12-18T11:13:11.970Z,-4.91
2022-12-18T11:15:41.691Z,-5.11
2022-12-18T11:18:37.313Z,-5.16
2022-12-18T11:21:06.814Z,-5.18
2022-12-18T11:23:34.599Z,-5.07
2022-12-18T11:26:04.095Z,-5.28
2022-12-18T11:28:37.160Z,-5.40
2022-12-18T11:31:18.023Z,-5.20
2022-12-18T11:34:30.144Z,-5.26
2022-12-18T11:37:00.649Z,-5.27
2022-12-18T11:39:41.409Z,-5.44
2022-12-18T11:42:21.503Z,-5.35
2022-12-18T11:44:55.281Z,-5.46
2022-12-18T11:47:22.089Z,-5.32
2022-12-18T11:49:52.911Z,-5.32
2022-12-18T11:52:22.254Z,-5.32
2022-12-18T11:54:54.006Z,-5.34
2022-12-18T11:57:37.072Z,-5.44
2022-12-18T12:00:22.282Z,-5.30
2022-12-18T12:03:22.332Z,-5.23
2022-12-18T12:06:05.728Z,-5.27
2022-12-18T12:08:41.297Z,-5.06
2022-12-18T12:11:19.049Z,-5.03
2022-12-18T12:14:16.724Z,-5.04
2022-12-18T12:17:15.695Z,-4.96
2022-12-18T12:20:06.372Z,-5.00
2022-12-18T12:22:50.522Z,-5.16
2022-12-18T12:25:22.716Z,-5.20
2022-12-18T12:28:04.519Z,-5.22
2022-12-18T12:30:49.820Z,-5.22
2022-12-18T12:33:49.240Z,-5.22
2022-12-18T12:36:27.739Z,-5.17
2022-12-18T12:38:58.752Z,-5.16
2022-12-18T12:41:50.013Z,-4.91
2022-12-18T12:44:23.337Z,-4.79
2022-12-18T12:46:53.196Z,-5.01
2022-12-18T12:49:22.943Z,-5.05
2022-12-18T12:52:07.313Z,-5.00
2022-12-18T12:54:36.210Z,-4.73
2022-12-18T12:57:11.955Z,-4.69
2022-12-18T13:00:07.432Z,-4.71
2022-12-18T13:03:28.133Z,-4.64
2022-12-18T13:06:01.594Z,-4.41
2022-12-18T13:08:33.269Z,-4.44
2022-12-18T13:11:20.063Z,-4.58
2022-12-18T13:13:51.973Z,-4.72
2022-12-18T13:16:24.789Z,-4.98
2022-12-18T13:18:55.277Z,-5.04
2022-12-18T13:21:28.022Z,-5.10
2022-12-18T13:23:56.653Z,-5.10
2022-12-18T13:26:29.073Z,-5.15
2022-12-18T13:28:58.453Z,-5.17
2022-12-18T13:31:31.940Z,-5.15
2022-12-18T13:34:30.790Z,-5.24
2022-12-18T13:37:32.699Z,-5.46
2022-12-18T13:39:59.412Z,-5.47
2022-12-18T13:42:57.783Z,-5.67
2022-12-18T13:45:40.207Z,-5.59
2022-12-18T13:48:17.125Z,-5.64
2022-12-18T13:50:44.276Z,-5.38
2022-12-18T13:53:22.697Z,-5.22
2022-12-18T13:55:50.662Z,-5.29
2022-12-18T13:58:17.396Z,-5.18
2022-12-18T14:00:45.560Z,-5.22
2022-12-18T14:03:22.549Z,-5.33
2022-12-18T14:06:05.669Z,-5.50
2022-12-18T14:08:42.253Z,-5.65
2022-12-18T14:11:20.976Z,-5.72
2022-12-18T14:13:48.373Z,-5.77
2022-12-18T14:16:17.739Z,-5.72
2022-12-18T14:18:53.567Z,-5.68
2022-12-18T14:21:24.410Z,-5.75
2022-12-18T14:24:09.465Z,-5.83
2022-12-18T14:26:36.039Z,-5.84
2022-12-18T14:29:22.689Z,-5.79
2022-12-18T14:32:13.345Z,-5.72
2022-12-18T14:34:41.731Z,-5.55
2022-12-18T14:37:12.126Z,-5.48
2022-12-18T14:39:38.949Z,-5.64
2022-12-18T14:42:05.573Z,-5.53
2022-12-18T14:44:44.177Z,-5.61
2022-12-18T14:47:18.741Z,-5.53
2022-12-18T14:49:45.655Z,-5.57
2022-12-18T14:52:27.360Z,-5.52
2022-12-18T14:54:54.196Z,-5.65
2022-12-18T14:57:27.852Z,-5.74
2022-12-18T14:59:54.441Z,-5.58
2022-12-18T15:02:27.589Z,-5.53
2022-12-18T15:05:08.465Z,-5.42
2022-12-18T15:07:44.205Z,-5.29
2022-12-18T15:10:15.402Z,-5.26
2022-12-18T15:12:43.619Z,-5.40
2022-12-18T15:15:35.256Z,-5.27
2022-12-18T15:18:03.497Z,-5.13
2022-12-18T15:20:39.705Z,-4.98
2022-12-18T15:23:13.640Z,-4.90
2022-12-18T15:25:40.212Z,-5.00
2022-12-18T15:28:21.056Z,-4.90
2022-12-18T15:31:17.717Z,-4.89
2022-12-18T15:34:01.670Z,-4.95
2022-12-18T15:36:28.200Z,-5.01
2022-12-18T15:39:04.200Z,-4.95
2022-12-18T15:41:37.460Z,-4.93
2022-12-18T15:44:27.190Z,-5.00
2022-12-18T15:46:53.701Z,-4.89
2022-12-18T15:49:20.392Z,-5.00
2022-12-18T15:51:52.929Z,-4.97
2022-12-18T15:54:39.423Z,-5.05
2022-12-18T15:57:24.233Z,-5.07
2022-12-18T15:59:57.510Z,-4.93
2022-12-18T16:02:25.111Z,-4.87
2022-12-18T16:04:53.232Z,-4.90
2022-12-18T16:07:22.902Z,-4.81
2022-12-18T16:09:52.236Z,-4.64
2022-12-18T16:12:25.166Z,-4.63
2022-12-18T16:14:51.959Z,-4.64
2022-12-18T16:17:18.619Z,-4.72
2022-12-18T16:19:45.424Z,-4.81
2022-12-18T16:22:27.767Z,-4.86
2022-12-18T16:24:55.667Z,-4.91
2022-12-18T16:27:23.256Z,-4.88
2022-12-18T16:29:50.105Z,-4.79
2022-12-18T16:32:19.453Z,-4.83
2022-12-18T16:34:46.928Z,-4.72
2022-12-18T16:37:15.889Z,-4.47
2022-12-18T16:39:43.152Z,-4.44
2022-12-18T16:42:17.931Z,-4.33
2022-12-18T16:44:45.287Z,-4.31
2022-12-18T16:47:14.893Z,-4.38
2022-12-18T16:49:42.206Z,-4.40
2022-12-18T16:52:08.825Z,-4.52
2022-12-18T16:54:36.744Z,-4.63
2022-12-18T16:57:05.334Z,-4.69
2022-12-18T16:59:35.306Z,-4.65
2022-12-18T17:02:06.227Z,-4.56
2022-12-18T17:04:33.920Z,-4.54
2022-12-18T17:07:00.504Z,-4.56
2022-12-18T17:09:27.084Z,-4.50
2022-12-18T17:11:54.570Z,-4.55
2022-12-18T17:14:23.609Z,-4.63
2022-12-18T17:17:07.460Z,-4.81
2022-12-18T17:19:37.216Z,-4.77
2022-12-18T17:22:04.891Z,-4.75
2022-12-18T17:24:34.822Z,-4.86
2022-12-18T17:27:02.860Z,-4.79
2022-12-18T17:29:29.397Z,-4.63
2022-12-18T17:31:55.937Z,-4.62
2022-12-18T17:34:24.342Z,-4.60
2022-12-18T17:36:51.050Z,-4.72
2022-12-18T17:39:20.036Z,-4.82
2022-12-18T17:41:47.444Z,-4.88
2022-12-18T17:44:14.633Z,-4.75
2022-12-18T17:46:41.925Z,-4.67
2022-12-18T17:49:09.380Z,-4.60
2022-12-18T17:51:35.935Z,-4.51
2022-12-18T17:54:02.513Z,-4.44
2022-12-18T17:56:29.091Z,-4.39
2022-12-18T17:58:55.684Z,-4.45
2022-12-18T18:01:25.121Z,-4.49
2022-12-18T18:03:53.787Z,-4.63
2022-12-18T18:06:20.736Z,-4.79
2022-12-18T18:08:48.106Z,-4.76
2022-12-18T18:11:37.567Z,-4.83
2022-12-18T18:14:07.154Z,-4.59
2022-12-18T18:16:46.002Z,-4.56
2022-12-18T18:19:17.819Z,-4.52
2022-12-18T18:21:46.457Z,-4.67
2022-12-18T18:24:15.544Z,-4.71
2022-12-18T18:26:42.117Z,-4.59
2022-12-18T18:29:15.780Z,-4.73
2022-12-18T18:31:42.860Z,-4.89
2022-12-18T18:34:15.416Z,-5.00
2022-12-18T18:36:42.141Z,-4.95
2022-12-18T18:39:09.214Z,-4.86
2022-12-18T18:41:36.979Z,-4.72
2022-12-18T18:44:03.763Z,-4.78
2022-12-18T18:46:30.353Z,-4.81
2022-12-18T18:48:56.904Z,-4.81
2022-12-18T18:51:23.912Z,-4.72
2022-12-18T18:53:52.277Z,-4.64
2022-12-18T18:56:56.576Z,-4.66
2022-12-18T18:59:10.319Z,-4.65
2022-12-18T19:01:37.069Z,-4.68
2022-12-18T19:04:04.173Z,-4.77
2022-12-18T19:06:31.271Z,-4.74
2022-12-18T19:09:01.370Z,-4.74
2022-12-18T19:11:46.697Z,-4.84
2022-12-18T19:14:14.868Z,-4.87
2022-12-18T19:16:42.770Z,-4.88
2022-12-18T19:19:09.639Z,-4.99
2022-12-18T19:21:38.142Z,-4.94
2022-12-18T19:24:06.063Z,-5.10
2022-12-18T19:26:32.645Z,-5.05
2022-12-18T19:29:04.224Z,-5.03
2022-12-18T19:31:35.479Z,-5.08
2022-12-18T19:34:03.893Z,-5.03
2022-12-18T19:36:31.283Z,-4.97
2022-12-18T19:39:00.730Z,-4.98
2022-12-18T19:41:31.287Z,-5.10
2022-12-18T19:43:59.564Z,-5.18
2022-12-18T19:46:26.170Z,-5.06
2022-12-18T19:48:52.908Z,-5.04
2022-12-18T19:51:26.133Z,-5.06
2022-12-18T19:53:58.433Z,-5.00
2022-12-18T19:56:28.676Z,-5.00
2022-12-18T19:58:55.794Z,-4.95
2022-12-18T20:01:24.378Z,-5.03
2022-12-18T20:03:52.751Z,-4.98
2022-12-18T20:06:26.765Z,-5.04
2022-12-18T20:09:00.666Z,-5.18
2022-12-18T20:11:29.642Z,-5.25
2022-12-18T20:13:57.379Z,-5.26
2022-12-18T20:16:24.031Z,-5.17
2022-12-18T20:18:50.845Z,-5.18
2022-12-18T20:21:18.913Z,-5.27
2022-12-18T20:23:46.071Z,-5.28
2022-12-18T20:26:12.963Z,-5.41
2022-12-18T20:28:40.625Z,-5.55
2022-12-18T20:31:10.407Z,-5.57
2022-12-18T20:33:37.738Z,-5.27
2022-12-18T20:36:10.530Z,-5.34
2022-12-18T20:38:38.992Z,-5.48
2022-12-18T20:41:16.388Z,-5.56
2022-12-18T20:43:44.005Z,-5.69
2022-12-18T20:46:13.124Z,-5.83
2022-12-18T20:48:43.768Z,-5.96
2022-12-18T20:51:16.985Z,-6.04
2022-12-18T20:53:44.436Z,-6.12
2022-12-18T20:56:22.780Z,-6.10
2022-12-18T20:58:53.669Z,-6.29
2022-12-18T21:01:22.856Z,-6.45
2022-12-18T21:03:50.451Z,-6.50
2022-12-18T21:06:19.218Z,-6.43
2022-12-18T21:08:46.133Z,-6.54
2022-12-18T21:11:40.471Z,-6.56
2022-12-18T21:14:15.976Z,-6.76
2022-12-18T21:16:43.958Z,-6.89
2022-12-18T21:19:16.409Z,-6.73
2022-12-18T21:21:43.925Z,-6.80
2022-12-18T21:24:11.616Z,-6.71
2022-12-18T21:26:44.914Z,-6.84
2022-12-18T21:29:15.420Z,-6.91
2022-12-18T21:31:42.894Z,-7.05
2022-12-18T21:34:14.605Z,-7.11
2022-12-18T21:36:41.158Z,-7.04
2022-12-18T21:39:08.291Z,-7.06
2022-12-18T21:41:53.534Z,-7.08
2022-12-18T21:44:22.621Z,-6.90
2022-12-18T21:46:55.830Z,-6.85
2022-12-18T21:49:26.847Z,-6.92
2022-12-18T21:51:56.249Z,-7.00
2022-12-18T21:54:23.586Z,-7.04
2022-12-18T21:56:53.962Z,-7.00
2022-12-18T21:59:32.288Z,-7.07
2022-12-18T22:02:01.518Z,-7.25
2022-12-18T22:04:28.594Z,-7.42
2022-12-18T22:06:56.231Z,-7.51
2022-12-18T22:09:25.260Z,-7.59
2022-12-18T22:11:52.352Z,-7.63
2022-12-18T22:14:19.252Z,-7.67
2022-12-18T22:16:45.953Z,-7.82
2022-12-18T22:19:14.782Z,-7.86
2022-12-18T22:21:45.513Z,-7.90
2022-12-18T22:24:16.333Z,-7.98
2022-12-18T22:26:43.132Z,-7.96
2022-12-18T22:29:36.707Z,-7.84
2022-12-18T22:32:05.041Z,-7.83
2022-12-18T22:34:36.327Z,-7.95
2022-12-18T22:37:03.456Z,-7.93
2022-12-18T22:39:30.233Z,-7.84
2022-12-18T22:41:58.186Z,-7.85
2022-12-18T22:44:27.857Z,-7.91
2022-12-18T22:47:05.965Z,-7.98
2022-12-18T22:49:34.866Z,-8.04
2022-12-18T22:52:02.200Z,-8.00
2022-12-18T22:54:28.854Z,-8.02
2022-12-18T22:56:55.548Z,-8.04
2022-12-18T22:59:23.279Z,-8.01
2022-12-18T23:01:52.984Z,-8.08
2022-12-18T23:04:36.024Z,-8.06
2022-12-18T23:07:04.406Z,-8.13
2022-12-18T23:09:31.096Z,-8.07
2022-12-18T23:11:57.616Z,-7.99
2022-12-18T23:14:24.150Z,-7.74
2022-12-18T23:16:50.799Z,-7.66
2022-12-18T23:19:19.627Z,-7.63
2022-12-18T23:21:46.357Z,-7.52
2022-12-18T23:24:12.956Z,-7.43
2022-12-18T23:26:39.503Z,-7.34
2022-12-18T23:29:06.181Z,-7.31
2022-12-18T23:31:38.500Z,-7.31
2022-12-18T23:34:06.295Z,-7.29
2022-12-18T23:36:43.523Z,-7.23
2022-12-18T23:39:17.190Z,-7.23
2022-12-18T23:41:55.923Z,-7.26
2022-12-18T23:44:22.519Z,-7.21
2022-12-18T23:46:49.129Z,-7.33
2022-12-18T23:49:15.706Z,-7.45
2022-12-18T23:51:42.278Z,-7.71
2022-12-18T23:54:10.395Z,-7.76
2022-12-18T23:56:36.923Z,-7.77
2022-12-18T23:59:03.549Z,-7.79
